createdAt,value
2023-08-11T12:45:08.016Z,27.07
2023-08-11T12:47:34.661Z,27.05
2023-08-11T12:50:01.285Z,27.05
2023-08-11T12:52:27.875Z,27.00
2023-08-11T12:54:54.430Z,26.91
2023-08-11T12:57:21.030Z,26.84
2023-08-11T12:59:47.606Z,26.70
2023-08-11T13:02:14.440Z,26.59
2023-08-11T13:04:40.978Z,26.56
2023-08-11T13:07:07.551Z,26.51
2023-08-11T13:09:34.119Z,26.42
2023-08-11T13:12:00.793Z,26.31
2023-08-11T13:14:27.614Z,26.25
2023-08-11T13:16:54.228Z,26.27
2023-08-11T13:19:20.759Z,26.26
2023-08-11T13:21:47.289Z,26.23
2023-08-11T13:24:13.977Z,26.19
2023-08-11T13:26:40.514Z,26.23
2023-08-11T13:29:07.063Z,26.33
2023-08-11T13:31:33.679Z,26.48
2023-08-11T13:34:00.287Z,26.55
2023-08-11T13:36:26.897Z,26.57
2023-08-11T13:38:53.449Z,26.68
2023-08-11T13:41:20.190Z,26.83
2023-08-11T13:43:46.773Z,27.05
2023-08-11T13:46:13.354Z,27.23
2023-08-11T13:48:39.827Z,27.30
2023-08-11T13:51:06.495Z,27.36
2023-08-11T13:53:33.078Z,27.59
2023-08-11T13:55:59.643Z,27.87
2023-08-11T13:58:26.146Z,28.14
2023-08-11T14:00:52.709Z,28.35
2023-08-11T14:03:19.628Z,28.40
2023-08-11T14:05:46.289Z,28.25
2023-08-11T14:08:12.815Z,28.09
2023-08-11T14:10:39.508Z,28.09
2023-08-11T14:13:07.800Z,28.07
2023-08-11T14:15:36.565Z,28.01
2023-08-11T14:18:04.612Z,27.93
2023-08-11T14:20:32.405Z,27.86
2023-08-11T14:22:59.267Z,27.90
2023-08-11T14:25:26.071Z,27.96
2023-08-11T14:27:52.601Z,27.95
2023-08-11T14:30:19.152Z,27.87
2023-08-11T14:32:45.812Z,27.82
2023-08-11T14:35:12.488Z,27.84
2023-08-11T14:37:39.007Z,27.89
2023-08-11T14:40:06.294Z,27.88
2023-08-11T14:42:32.812Z,27.86
2023-08-11T14:44:59.301Z,27.82
2023-08-11T14:47:25.809Z,27.80
2023-08-11T14:49:52.330Z,27.88
2023-08-11T14:52:18.864Z,27.89
2023-08-11T14:54:45.456Z,27.76
2023-08-11T14:57:11.979Z,27.57
2023-08-11T14:59:39.698Z,27.50
2023-08-11T15:02:06.283Z,27.42
2023-08-11T15:04:32.940Z,27.37
2023-08-11T15:06:59.474Z,27.34
2023-08-11T15:09:25.949Z,27.33
2023-08-11T15:11:52.442Z,27.31
2023-08-11T15:14:18.928Z,27.30
2023-08-11T15:16:45.823Z,27.32
2023-08-11T15:19:12.468Z,27.36
2023-08-11T15:21:39.479Z,27.33
2023-08-11T15:24:06.702Z,27.20
2023-08-11T15:26:33.249Z,27.07
